sensor_id;sensor_type;location;lat;lon;timestamp;temperature;humidity
13960;DHT22;7052;51.050;3.716;2022-08-04T00:01:32;23.20;99.90
13960;DHT22;7052;51.050;3.716;2022-08-04T00:04:07;23.10;99.90
13960;DHT22;7052;51.050;3.716;2022-08-04T00:06:46;23.10;99.90
13960;DHT22;7052;51.050;3.716;2022-08-04T00:09:26;23.10;99.90
13960;DHT22;7052;51.050;3.716;2022-08-04T00:11:57;23.10;99.90
13960;DHT22;7052;51.050;3.716;2022-08-04T00:14:24;23.10;99.90
13960;DHT22;7052;51.050;3.716;2022-08-04T00:16:53;23.10;99.90
13960;DHT22;7052;51.050;3.716;2022-08-04T00:19:28;23.00;99.90
13960;DHT22;7052;51.050;3.716;2022-08-04T00:21:59;23.00;99.90
13960;DHT22;7052;51.050;3.716;2022-08-04T00:24:30;22.90;99.90
13960;DHT22;7052;51.050;3.716;2022-08-04T00:26:57;22.80;99.90
13960;DHT22;7052;51.050;3.716;2022-08-04T00:29:24;22.80;99.90
13960;DHT22;7052;51.050;3.716;2022-08-04T00:31:53;22.70;99.90
13960;DHT22;7052;51.050;3.716;2022-08-04T00:34:23;22.70;99.90
13960;DHT22;7052;51.050;3.716;2022-08-04T00:36:52;22.70;99.90
13960;DHT22;7052;51.050;3.716;2022-08-04T00:39:20;22.60;99.90
13960;DHT22;7052;51.050;3.716;2022-08-04T00:41:56;22.60;99.90
13960;DHT22;7052;51.050;3.716;2022-08-04T00:44:33;22.60;99.90
13960;DHT22;7052;51.050;3.716;2022-08-04T00:47:28;22.60;99.90
13960;DHT22;7052;51.050;3.716;2022-08-04T00:50:05;22.60;99.90
13960;DHT22;7052;51.050;3.716;2022-08-04T00:53:05;22.50;99.90
13960;DHT22;7052;51.050;3.716;2022-08-04T00:58:42;22.50;99.90
13960;DHT22;7052;51.050;3.716;2022-08-04T01:01:18;22.50;99.90
13960;DHT22;7052;51.050;3.716;2022-08-04T01:03:50;22.50;99.90
13960;DHT22;7052;51.050;3.716;2022-08-04T01:06:35;22.50;99.90
13960;DHT22;7052;51.050;3.716;2022-08-04T01:09:30;22.40;99.90
13960;DHT22;7052;51.050;3.716;2022-08-04T01:12:13;22.40;99.90
13960;DHT22;7052;51.050;3.716;2022-08-04T01:14:53;22.40;99.90
13960;DHT22;7052;51.050;3.716;2022-08-04T01:17:24;22.40;99.90
13960;DHT22;7052;51.050;3.716;2022-08-04T01:19:59;22.40;99.90
13960;DHT22;7052;51.050;3.716;2022-08-04T01:26:21;22.40;99.90
13960;DHT22;7052;51.050;3.716;2022-08-04T01:29:07;22.40;99.90
13960;DHT22;7052;51.050;3.716;2022-08-04T01:31:55;22.40;99.90
13960;DHT22;7052;51.050;3.716;2022-08-04T01:34:27;22.30;99.90
13960;DHT22;7052;51.050;3.716;2022-08-04T01:36:58;22.30;99.90
13960;DHT22;7052;51.050;3.716;2022-08-04T01:39:33;22.30;99.90
13960;DHT22;7052;51.050;3.716;2022-08-04T01:42:06;22.20;99.90
13960;DHT22;7052;51.050;3.716;2022-08-04T01:44:37;22.20;99.90
13960;DHT22;7052;51.050;3.716;2022-08-04T01:47:06;22.30;99.90
13960;DHT22;7052;51.050;3.716;2022-08-04T01:49:34;22.20;99.90
13960;DHT22;7052;51.050;3.716;2022-08-04T01:52:06;22.20;99.90
13960;DHT22;7052;51.050;3.716;2022-08-04T01:54:37;22.20;99.90
13960;DHT22;7052;51.050;3.716;2022-08-04T01:57:05;22.10;99.90
13960;DHT22;7052;51.050;3.716;2022-08-04T01:59:34;22.10;99.90
13960;DHT22;7052;51.050;3.716;2022-08-04T02:02:03;22.00;99.90
13960;DHT22;7052;51.050;3.716;2022-08-04T02:04:30;22.00;99.90
13960;DHT22;7052;51.050;3.716;2022-08-04T02:07:05;21.90;99.90
13960;DHT22;7052;51.050;3.716;2022-08-04T02:09:42;22.00;99.90
13960;DHT22;7052;51.050;3.716;2022-08-04T02:12:19;21.80;99.90
13960;DHT22;7052;51.050;3.716;2022-08-04T02:14:55;21.80;99.90
13960;DHT22;7052;51.050;3.716;2022-08-04T02:17:27;21.80;99.90
13960;DHT22;7052;51.050;3.716;2022-08-04T02:20:03;21.80;99.90
13960;DHT22;7052;51.050;3.716;2022-08-04T02:22:32;21.70;99.90
13960;DHT22;7052;51.050;3.716;2022-08-04T02:25:04;21.70;99.90
13960;DHT22;7052;51.050;3.716;2022-08-04T02:27:40;21.70;99.90
13960;DHT22;7052;51.050;3.716;2022-08-04T02:30:13;21.70;99.90
13960;DHT22;7052;51.050;3.716;2022-08-04T02:32:42;21.60;99.90
13960;DHT22;7052;51.050;3.716;2022-08-04T02:35:14;21.60;99.90
13960;DHT22;7052;51.050;3.716;2022-08-04T02:37:46;21.60;99.90
13960;DHT22;7052;51.050;3.716;2022-08-04T02:40:19;21.50;99.90
13960;DHT22;7052;51.050;3.716;2022-08-04T02:42:46;21.50;99.90
13960;DHT22;7052;51.050;3.716;2022-08-04T02:45:18;21.50;99.90
13960;DHT22;7052;51.050;3.716;2022-08-04T02:47:49;21.50;99.90
13960;DHT22;7052;51.050;3.716;2022-08-04T02:50:19;21.50;99.90
13960;DHT22;7052;51.050;3.716;2022-08-04T02:52:49;21.50;99.90
13960;DHT22;7052;51.050;3.716;2022-08-04T02:55:18;21.40;99.90
13960;DHT22;7052;51.050;3.716;2022-08-04T02:57:46;21.40;99.90
13960;DHT22;7052;51.050;3.716;2022-08-04T03:00:17;21.30;99.90
13960;DHT22;7052;51.050;3.716;2022-08-04T03:02:57;21.30;99.90
13960;DHT22;7052;51.050;3.716;2022-08-04T03:05:35;21.30;99.90
13960;DHT22;7052;51.050;3.716;2022-08-04T03:08:29;21.30;99.90
13960;DHT22;7052;51.050;3.716;2022-08-04T03:17:32;21.10;99.90
13960;DHT22;7052;51.050;3.716;2022-08-04T03:20:45;21.10;99.90
13960;DHT22;7052;51.050;3.716;2022-08-04T03:23:41;21.00;99.90
13960;DHT22;7052;51.050;3.716;2022-08-04T03:26:55;21.00;99.90
13960;DHT22;7052;51.050;3.716;2022-08-04T03:29:59;20.90;99.90
13960;DHT22;7052;51.050;3.716;2022-08-04T03:36:00;20.80;99.90
13960;DHT22;7052;51.050;3.716;2022-08-04T03:41:45;20.80;99.90
13960;DHT22;7052;51.050;3.716;2022-08-04T03:50:39;20.80;99.90
13960;DHT22;7052;51.050;3.716;2022-08-04T03:53:22;20.70;99.90
13960;DHT22;7052;51.050;3.716;2022-08-04T03:56:11;20.70;99.90
13960;DHT22;7052;51.050;3.716;2022-08-04T03:59:05;20.60;99.90
13960;DHT22;7052;51.050;3.716;2022-08-04T04:04:59;20.60;99.90
13960;DHT22;7052;51.050;3.716;2022-08-04T04:07:52;20.60;99.90
13960;DHT22;7052;51.050;3.716;2022-08-04T04:10:33;20.60;99.90
13960;DHT22;7052;51.050;3.716;2022-08-04T04:13:18;20.50;99.90
13960;DHT22;7052;51.050;3.716;2022-08-04T04:22:20;20.40;99.90
13960;DHT22;7052;51.050;3.716;2022-08-04T04:25:18;20.40;99.90
13960;DHT22;7052;51.050;3.716;2022-08-04T04:28:08;20.40;99.90
13960;DHT22;7052;51.050;3.716;2022-08-04T04:30:41;20.40;99.90
13960;DHT22;7052;51.050;3.716;2022-08-04T04:33:36;20.30;99.90
13960;DHT22;7052;51.050;3.716;2022-08-04T04:36:11;20.30;99.90
13960;DHT22;7052;51.050;3.716;2022-08-04T04:39:07;20.30;99.90
13960;DHT22;7052;51.050;3.716;2022-08-04T04:41:54;20.30;99.90
13960;DHT22;7052;51.050;3.716;2022-08-04T04:44:58;20.30;99.90
13960;DHT22;7052;51.050;3.716;2022-08-04T04:47:36;20.20;99.90
13960;DHT22;7052;51.050;3.716;2022-08-04T04:50:10;20.20;99.90
13960;DHT22;7052;51.050;3.716;2022-08-04T04:52:44;20.20;99.90
13960;DHT22;7052;51.050;3.716;2022-08-04T04:55:17;20.10;99.90
13960;DHT22;7052;51.050;3.716;2022-08-04T04:57:49;20.00;99.90
13960;DHT22;7052;51.050;3.716;2022-08-04T05:00:17;19.90;99.90
13960;DHT22;7052;51.050;3.716;2022-08-04T05:09:00;19.80;99.90
13960;DHT22;7052;51.050;3.716;2022-08-04T05:14:37;19.80;99.90
13960;DHT22;7052;51.050;3.716;2022-08-04T05:17:14;19.90;99.90
13960;DHT22;7052;51.050;3.716;2022-08-04T05:19:49;19.90;99.90
13960;DHT22;7052;51.050;3.716;2022-08-04T05:22:21;19.90;99.90
13960;DHT22;7052;51.050;3.716;2022-08-04T05:24:53;19.90;99.90
13960;DHT22;7052;51.050;3.716;2022-08-04T05:27:30;20.00;99.90
13960;DHT22;7052;51.050;3.716;2022-08-04T05:30:04;20.00;99.90
13960;DHT22;7052;51.050;3.716;2022-08-04T05:32:37;20.00;99.90
13960;DHT22;7052;51.050;3.716;2022-08-04T05:35:08;20.10;99.90
13960;DHT22;7052;51.050;3.716;2022-08-04T05:37:38;20.20;99.90
13960;DHT22;7052;51.050;3.716;2022-08-04T05:40:07;20.10;99.90
13960;DHT22;7052;51.050;3.716;2022-08-04T05:42:36;20.20;99.90
13960;DHT22;7052;51.050;3.716;2022-08-04T05:45:07;20.20;99.90
13960;DHT22;7052;51.050;3.716;2022-08-04T05:47:35;20.20;99.90
13960;DHT22;7052;51.050;3.716;2022-08-04T05:50:05;20.20;99.90
13960;DHT22;7052;51.050;3.716;2022-08-04T05:52:33;20.30;99.90
13960;DHT22;7052;51.050;3.716;2022-08-04T05:55:02;20.40;99.90
13960;DHT22;7052;51.050;3.716;2022-08-04T05:57:29;20.40;99.90
13960;DHT22;7052;51.050;3.716;2022-08-04T05:59:59;20.40;99.90
13960;DHT22;7052;51.050;3.716;2022-08-04T06:02:29;20.50;99.90
13960;DHT22;7052;51.050;3.716;2022-08-04T06:04:57;20.50;99.90
13960;DHT22;7052;51.050;3.716;2022-08-04T06:07:25;20.50;99.90
13960;DHT22;7052;51.050;3.716;2022-08-04T06:09:52;20.60;99.90
13960;DHT22;7052;51.050;3.716;2022-08-04T06:12:22;20.70;99.90
13960;DHT22;7052;51.050;3.716;2022-08-04T06:14:54;20.70;99.90
13960;DHT22;7052;51.050;3.716;2022-08-04T06:17:27;20.80;99.90
13960;DHT22;7052;51.050;3.716;2022-08-04T06:19:58;20.80;99.90
13960;DHT22;7052;51.050;3.716;2022-08-04T06:22:28;20.90;99.90
13960;DHT22;7052;51.050;3.716;2022-08-04T06:24:57;21.00;99.90
13960;DHT22;7052;51.050;3.716;2022-08-04T06:27:25;21.20;99.90
13960;DHT22;7052;51.050;3.716;2022-08-04T06:29:53;21.00;99.90
13960;DHT22;7052;51.050;3.716;2022-08-04T06:32:20;21.30;99.90
13960;DHT22;7052;51.050;3.716;2022-08-04T06:34:54;21.30;99.90
13960;DHT22;7052;51.050;3.716;2022-08-04T06:37:24;21.40;99.90
13960;DHT22;7052;51.050;3.716;2022-08-04T06:39:53;21.60;99.90
13960;DHT22;7052;51.050;3.716;2022-08-04T06:42:22;21.60;99.90
13960;DHT22;7052;51.050;3.716;2022-08-04T06:44:51;21.70;99.90
13960;DHT22;7052;51.050;3.716;2022-08-04T06:47:20;21.70;99.90
13960;DHT22;7052;51.050;3.716;2022-08-04T06:49:51;21.80;99.90
13960;DHT22;7052;51.050;3.716;2022-08-04T06:52:19;22.00;99.90
13960;DHT22;7052;51.050;3.716;2022-08-04T06:54:49;22.10;99.90
13960;DHT22;7052;51.050;3.716;2022-08-04T06:57:18;22.30;99.90
13960;DHT22;7052;51.050;3.716;2022-08-04T06:59:48;22.50;99.90
13960;DHT22;7052;51.050;3.716;2022-08-04T07:02:19;22.60;99.90
13960;DHT22;7052;51.050;3.716;2022-08-04T07:04:48;22.70;99.90
13960;DHT22;7052;51.050;3.716;2022-08-04T07:07:15;22.90;99.90
13960;DHT22;7052;51.050;3.716;2022-08-04T07:09:42;23.00;99.90
13960;DHT22;7052;51.050;3.716;2022-08-04T07:12:11;22.90;99.90
13960;DHT22;7052;51.050;3.716;2022-08-04T07:14:39;22.90;99.90
13960;DHT22;7052;51.050;3.716;2022-08-04T07:17:08;22.80;99.90
13960;DHT22;7052;51.050;3.716;2022-08-04T07:19:36;22.70;99.90
13960;DHT22;7052;51.050;3.716;2022-08-04T07:22:06;22.80;99.90
13960;DHT22;7052;51.050;3.716;2022-08-04T07:24:36;22.90;99.90
13960;DHT22;7052;51.050;3.716;2022-08-04T07:27:04;23.00;99.90
13960;DHT22;7052;51.050;3.716;2022-08-04T07:29:34;23.00;99.90
13960;DHT22;7052;51.050;3.716;2022-08-04T07:32:02;23.10;99.90
13960;DHT22;7052;51.050;3.716;2022-08-04T07:34:31;23.10;99.90
13960;DHT22;7052;51.050;3.716;2022-08-04T07:36:59;23.00;99.90
13960;DHT22;7052;51.050;3.716;2022-08-04T07:39:28;23.00;99.90
13960;DHT22;7052;51.050;3.716;2022-08-04T07:41:58;23.10;99.90
13960;DHT22;7052;51.050;3.716;2022-08-04T07:44:25;23.10;99.90
13960;DHT22;7052;51.050;3.716;2022-08-04T07:46:54;23.20;99.90
13960;DHT22;7052;51.050;3.716;2022-08-04T07:49:21;23.20;99.90
13960;DHT22;7052;51.050;3.716;2022-08-04T07:51:49;23.20;99.90
13960;DHT22;7052;51.050;3.716;2022-08-04T07:54:17;23.10;99.90
13960;DHT22;7052;51.050;3.716;2022-08-04T07:56:44;23.10;99.90
13960;DHT22;7052;51.050;3.716;2022-08-04T07:59:13;23.10;99.90
13960;DHT22;7052;51.050;3.716;2022-08-04T08:01:41;23.10;99.90
13960;DHT22;7052;51.050;3.716;2022-08-04T08:04:11;23.10;99.90
13960;DHT22;7052;51.050;3.716;2022-08-04T08:06:39;23.10;99.90
13960;DHT22;7052;51.050;3.716;2022-08-04T08:09:07;23.00;99.90
13960;DHT22;7052;51.050;3.716;2022-08-04T08:11:34;22.90;99.90
13960;DHT22;7052;51.050;3.716;2022-08-04T08:14:01;22.90;99.90
13960;DHT22;7052;51.050;3.716;2022-08-04T08:16:29;22.70;99.90
13960;DHT22;7052;51.050;3.716;2022-08-04T08:18:58;22.70;99.90
13960;DHT22;7052;51.050;3.716;2022-08-04T08:21:27;22.60;99.90
13960;DHT22;7052;51.050;3.716;2022-08-04T08:23:55;22.60;99.90
13960;DHT22;7052;51.050;3.716;2022-08-04T08:26:22;22.50;99.90
13960;DHT22;7052;51.050;3.716;2022-08-04T08:28:49;22.40;99.90
13960;DHT22;7052;51.050;3.716;2022-08-04T08:31:16;22.40;99.90
13960;DHT22;7052;51.050;3.716;2022-08-04T08:33:44;22.40;99.90
13960;DHT22;7052;51.050;3.716;2022-08-04T08:36:17;22.40;99.90
13960;DHT22;7052;51.050;3.716;2022-08-04T08:38:54;22.40;99.90
13960;DHT22;7052;51.050;3.716;2022-08-04T08:41:50;22.40;99.90
13960;DHT22;7052;51.050;3.716;2022-08-04T08:47:38;22.40;99.90
13960;DHT22;7052;51.050;3.716;2022-08-04T08:50:35;22.40;99.90
13960;DHT22;7052;51.050;3.716;2022-08-04T08:53:20;22.40;99.90
13960;DHT22;7052;51.050;3.716;2022-08-04T08:56:06;22.40;99.90
13960;DHT22;7052;51.050;3.716;2022-08-04T08:58:46;22.50;99.90
13960;DHT22;7052;51.050;3.716;2022-08-04T09:01:30;22.50;99.90
13960;DHT22;7052;51.050;3.716;2022-08-04T09:04:29;22.60;99.90
13960;DHT22;7052;51.050;3.716;2022-08-04T09:07:23;22.70;99.90
13960;DHT22;7052;51.050;3.716;2022-08-04T09:10:07;22.90;99.90
13960;DHT22;7052;51.050;3.716;2022-08-04T09:12:45;23.00;99.90
13960;DHT22;7052;51.050;3.716;2022-08-04T09:15:14;23.00;99.90
13960;DHT22;7052;51.050;3.716;2022-08-04T09:17:49;23.10;99.90
13960;DHT22;7052;51.050;3.716;2022-08-04T09:20:24;23.10;99.90
13960;DHT22;7052;51.050;3.716;2022-08-04T09:23:03;23.10;99.90
13960;DHT22;7052;51.050;3.716;2022-08-04T09:25:39;23.20;99.90
13960;DHT22;7052;51.050;3.716;2022-08-04T09:28:15;23.20;99.90
13960;DHT22;7052;51.050;3.716;2022-08-04T09:30:51;23.30;99.90
13960;DHT22;7052;51.050;3.716;2022-08-04T09:33:27;23.40;99.90
13960;DHT22;7052;51.050;3.716;2022-08-04T09:35:59;23.60;99.90
13960;DHT22;7052;51.050;3.716;2022-08-04T09:38:31;23.90;99.90
13960;DHT22;7052;51.050;3.716;2022-08-04T09:41:06;24.00;99.90
13960;DHT22;7052;51.050;3.716;2022-08-04T09:43:46;24.20;99.90
13960;DHT22;7052;51.050;3.716;2022-08-04T09:46:23;24.40;99.90
13960;DHT22;7052;51.050;3.716;2022-08-04T09:48:55;24.70;99.90
13960;DHT22;7052;51.050;3.716;2022-08-04T09:51:38;24.70;99.90
13960;DHT22;7052;51.050;3.716;2022-08-04T09:54:13;24.90;99.90
13960;DHT22;7052;51.050;3.716;2022-08-04T09:56:51;25.20;99.90
13960;DHT22;7052;51.050;3.716;2022-08-04T09:59:26;25.20;99.90
13960;DHT22;7052;51.050;3.716;2022-08-04T10:01:56;25.20;99.90
13960;DHT22;7052;51.050;3.716;2022-08-04T10:04:27;25.30;99.90
13960;DHT22;7052;51.050;3.716;2022-08-04T10:07:15;25.50;99.90
13960;DHT22;7052;51.050;3.716;2022-08-04T10:09:56;25.60;99.90
13960;DHT22;7052;51.050;3.716;2022-08-04T10:12:30;25.80;99.90
13960;DHT22;7052;51.050;3.716;2022-08-04T10:15:08;25.90;99.90
13960;DHT22;7052;51.050;3.716;2022-08-04T10:17:53;26.10;99.90
13960;DHT22;7052;51.050;3.716;2022-08-04T10:20:44;26.10;99.70
13960;DHT22;7052;51.050;3.716;2022-08-04T10:23:22;26.30;99.00
13960;DHT22;7052;51.050;3.716;2022-08-04T10:26:03;26.20;98.50
13960;DHT22;7052;51.050;3.716;2022-08-04T10:28:36;26.40;98.50
13960;DHT22;7052;51.050;3.716;2022-08-04T10:31:14;26.50;97.20
13960;DHT22;7052;51.050;3.716;2022-08-04T10:33:48;26.50;95.90
13960;DHT22;7052;51.050;3.716;2022-08-04T10:36:20;26.70;95.00
13960;DHT22;7052;51.050;3.716;2022-08-04T10:38:55;26.90;93.30
13960;DHT22;7052;51.050;3.716;2022-08-04T10:41:29;27.10;92.50
13960;DHT22;7052;51.050;3.716;2022-08-04T10:44:13;27.10;91.70
13960;DHT22;7052;51.050;3.716;2022-08-04T10:46:48;27.10;91.80
13960;DHT22;7052;51.050;3.716;2022-08-04T10:49:21;27.30;91.10
13960;DHT22;7052;51.050;3.716;2022-08-04T10:51:52;27.40;87.50
13960;DHT22;7052;51.050;3.716;2022-08-04T10:54:25;27.40;84.10
13960;DHT22;7052;51.050;3.716;2022-08-04T10:56:56;27.40;84.10
13960;DHT22;7052;51.050;3.716;2022-08-04T10:59:29;27.50;83.40
13960;DHT22;7052;51.050;3.716;2022-08-04T11:02:09;27.50;80.50
13960;DHT22;7052;51.050;3.716;2022-08-04T11:04:43;27.50;80.00
13960;DHT22;7052;51.050;3.716;2022-08-04T11:07:11;27.50;77.70
13960;DHT22;7052;51.050;3.716;2022-08-04T11:09:40;27.50;77.70
13960;DHT22;7052;51.050;3.716;2022-08-04T11:12:13;27.50;76.90
13960;DHT22;7052;51.050;3.716;2022-08-04T11:14:49;27.40;78.90
13960;DHT22;7052;51.050;3.716;2022-08-04T11:17:23;27.40;77.90
13960;DHT22;7052;51.050;3.716;2022-08-04T11:19:58;27.50;75.90
13960;DHT22;7052;51.050;3.716;2022-08-04T11:22:27;27.50;75.90
13960;DHT22;7052;51.050;3.716;2022-08-04T11:25:03;27.60;75.80
13960;DHT22;7052;51.050;3.716;2022-08-04T11:27:39;27.80;73.40
13960;DHT22;7052;51.050;3.716;2022-08-04T11:30:11;27.80;72.50
13960;DHT22;7052;51.050;3.716;2022-08-04T11:32:43;27.80;73.10
13960;DHT22;7052;51.050;3.716;2022-08-04T11:35:17;28.00;72.70
13960;DHT22;7052;51.050;3.716;2022-08-04T11:37:56;28.20;70.80
13960;DHT22;7052;51.050;3.716;2022-08-04T11:40:32;28.50;69.30
13960;DHT22;7052;51.050;3.716;2022-08-04T11:43:05;28.50;68.00
13960;DHT22;7052;51.050;3.716;2022-08-04T11:45:37;28.60;66.70
13960;DHT22;7052;51.050;3.716;2022-08-04T11:48:09;28.60;66.30
13960;DHT22;7052;51.050;3.716;2022-08-04T11:50:40;28.70;64.50
13960;DHT22;7052;51.050;3.716;2022-08-04T11:53:12;28.80;64.70
13960;DHT22;7052;51.050;3.716;2022-08-04T11:55:44;28.80;63.10
13960;DHT22;7052;51.050;3.716;2022-08-04T11:58:14;28.80;62.50
13960;DHT22;7052;51.050;3.716;2022-08-04T12:00:50;28.70;61.90
13960;DHT22;7052;51.050;3.716;2022-08-04T12:03:30;28.70;62.00
13960;DHT22;7052;51.050;3.716;2022-08-04T12:06:12;28.60;62.20
13960;DHT22;7052;51.050;3.716;2022-08-04T12:08:53;28.80;61.60
13960;DHT22;7052;51.050;3.716;2022-08-04T12:11:33;28.90;60.90
13960;DHT22;7052;51.050;3.716;2022-08-04T12:14:08;29.10;60.00
13960;DHT22;7052;51.050;3.716;2022-08-04T12:16:43;29.10;59.30
13960;DHT22;7052;51.050;3.716;2022-08-04T12:19:19;29.10;58.80
13960;DHT22;7052;51.050;3.716;2022-08-04T12:21:49;29.10;58.40
13960;DHT22;7052;51.050;3.716;2022-08-04T12:24:20;29.00;58.60
13960;DHT22;7052;51.050;3.716;2022-08-04T12:26:51;29.00;58.50
13960;DHT22;7052;51.050;3.716;2022-08-04T12:29:22;29.10;57.70
13960;DHT22;7052;51.050;3.716;2022-08-04T12:31:52;29.10;57.10
13960;DHT22;7052;51.050;3.716;2022-08-04T12:34:27;29.10;57.10
13960;DHT22;7052;51.050;3.716;2022-08-04T12:37:01;29.20;56.70
13960;DHT22;7052;51.050;3.716;2022-08-04T12:39:31;29.10;56.60
13960;DHT22;7052;51.050;3.716;2022-08-04T12:42:02;29.10;57.50
13960;DHT22;7052;51.050;3.716;2022-08-04T12:44:34;29.30;56.40
13960;DHT22;7052;51.050;3.716;2022-08-04T12:47:04;29.40;55.60
13960;DHT22;7052;51.050;3.716;2022-08-04T12:49:35;29.40;55.60
13960;DHT22;7052;51.050;3.716;2022-08-04T12:52:05;29.40;55.90
13960;DHT22;7052;51.050;3.716;2022-08-04T12:54:34;29.40;55.60
13960;DHT22;7052;51.050;3.716;2022-08-04T12:57:03;29.50;55.10
13960;DHT22;7052;51.050;3.716;2022-08-04T12:59:37;29.60;54.40
13960;DHT22;7052;51.050;3.716;2022-08-04T13:02:05;29.70;53.60
13960;DHT22;7052;51.050;3.716;2022-08-04T13:04:35;29.90;53.00
13960;DHT22;7052;51.050;3.716;2022-08-04T13:07:09;29.90;52.40
13960;DHT22;7052;51.050;3.716;2022-08-04T13:09:39;30.10;52.00
13960;DHT22;7052;51.050;3.716;2022-08-04T13:12:12;30.20;51.80
13960;DHT22;7052;51.050;3.716;2022-08-04T13:14:40;30.30;51.40
13960;DHT22;7052;51.050;3.716;2022-08-04T13:17:09;30.30;51.70
13960;DHT22;7052;51.050;3.716;2022-08-04T13:19:38;30.20;51.80
13960;DHT22;7052;51.050;3.716;2022-08-04T13:22:11;30.20;51.40
13960;DHT22;7052;51.050;3.716;2022-08-04T13:24:42;30.00;51.80
13960;DHT22;7052;51.050;3.716;2022-08-04T13:27:11;29.90;52.10
13960;DHT22;7052;51.050;3.716;2022-08-04T13:29:40;29.80;51.80
13960;DHT22;7052;51.050;3.716;2022-08-04T13:32:14;29.70;51.90
13960;DHT22;7052;51.050;3.716;2022-08-04T13:34:43;29.50;52.30
13960;DHT22;7052;51.050;3.716;2022-08-04T13:37:13;29.70;54.40
13960;DHT22;7052;51.050;3.716;2022-08-04T13:39:43;29.80;54.50
13960;DHT22;7052;51.050;3.716;2022-08-04T13:42:12;29.80;54.40
13960;DHT22;7052;51.050;3.716;2022-08-04T13:44:43;29.90;54.40
13960;DHT22;7052;51.050;3.716;2022-08-04T13:47:13;30.10;54.00
13960;DHT22;7052;51.050;3.716;2022-08-04T13:49:42;30.30;54.00
13960;DHT22;7052;51.050;3.716;2022-08-04T13:52:29;30.40;53.70
13960;DHT22;7052;51.050;3.716;2022-08-04T13:54:57;30.30;53.80
13960;DHT22;7052;51.050;3.716;2022-08-04T13:57:29;30.30;54.50
13960;DHT22;7052;51.050;3.716;2022-08-04T14:00:03;30.30;54.10
13960;DHT22;7052;51.050;3.716;2022-08-04T14:02:37;30.30;54.00
13960;DHT22;7052;51.050;3.716;2022-08-04T14:05:08;30.20;54.20
13960;DHT22;7052;51.050;3.716;2022-08-04T14:07:43;29.90;54.40
13960;DHT22;7052;51.050;3.716;2022-08-04T14:10:12;29.70;54.90
13960;DHT22;7052;51.050;3.716;2022-08-04T14:12:44;29.50;55.60
13960;DHT22;7052;51.050;3.716;2022-08-04T14:15:31;29.40;55.90
13960;DHT22;7052;51.050;3.716;2022-08-04T14:18:19;29.50;55.70
13960;DHT22;7052;51.050;3.716;2022-08-04T14:21:04;29.60;55.50
13960;DHT22;7052;51.050;3.716;2022-08-04T14:23:47;29.50;55.60
13960;DHT22;7052;51.050;3.716;2022-08-04T14:26:22;29.40;55.50
13960;DHT22;7052;51.050;3.716;2022-08-04T14:28:50;29.40;55.40
13960;DHT22;7052;51.050;3.716;2022-08-04T14:31:19;29.30;55.60
13960;DHT22;7052;51.050;3.716;2022-08-04T14:33:47;29.20;56.30
13960;DHT22;7052;51.050;3.716;2022-08-04T14:36:19;29.20;56.00
13960;DHT22;7052;51.050;3.716;2022-08-04T14:38:52;29.30;55.80
13960;DHT22;7052;51.050;3.716;2022-08-04T14:41:22;29.40;55.40
13960;DHT22;7052;51.050;3.716;2022-08-04T14:43:52;29.40;55.00
13960;DHT22;7052;51.050;3.716;2022-08-04T14:46:22;29.30;55.50
13960;DHT22;7052;51.050;3.716;2022-08-04T14:49:14;29.10;56.00
13960;DHT22;7052;51.050;3.716;2022-08-04T14:51:43;28.90;56.30
13960;DHT22;7052;51.050;3.716;2022-08-04T14:54:13;28.80;56.90
13960;DHT22;7052;51.050;3.716;2022-08-04T14:56:40;28.70;57.00
13960;DHT22;7052;51.050;3.716;2022-08-04T14:59:09;28.50;57.50
13960;DHT22;7052;51.050;3.716;2022-08-04T15:01:37;28.40;57.90
13960;DHT22;7052;51.050;3.716;2022-08-04T15:04:05;28.30;58.20
13960;DHT22;7052;51.050;3.716;2022-08-04T15:06:33;28.20;58.70
13960;DHT22;7052;51.050;3.716;2022-08-04T15:09:04;28.00;58.80
13960;DHT22;7052;51.050;3.716;2022-08-04T15:11:31;27.90;59.20
13960;DHT22;7052;51.050;3.716;2022-08-04T15:13:58;27.90;59.40
13960;DHT22;7052;51.050;3.716;2022-08-04T15:16:28;27.70;59.80
13960;DHT22;7052;51.050;3.716;2022-08-04T15:18:56;27.70;60.30
13960;DHT22;7052;51.050;3.716;2022-08-04T15:21:25;27.60;61.00
13960;DHT22;7052;51.050;3.716;2022-08-04T15:23:53;27.60;61.40
13960;DHT22;7052;51.050;3.716;2022-08-04T15:26:28;27.70;61.40
13960;DHT22;7052;51.050;3.716;2022-08-04T15:28:59;27.80;61.20
13960;DHT22;7052;51.050;3.716;2022-08-04T15:31:28;28.00;60.40
13960;DHT22;7052;51.050;3.716;2022-08-04T15:33:59;28.10;59.30
13960;DHT22;7052;51.050;3.716;2022-08-04T15:36:35;28.20;58.10
13960;DHT22;7052;51.050;3.716;2022-08-04T15:39:09;28.20;57.60
13960;DHT22;7052;51.050;3.716;2022-08-04T15:41:46;28.10;58.10
13960;DHT22;7052;51.050;3.716;2022-08-04T15:44:36;28.00;58.50
13960;DHT22;7052;51.050;3.716;2022-08-04T15:47:12;28.00;57.40
13960;DHT22;7052;51.050;3.716;2022-08-04T15:49:40;28.00;57.30
13960;DHT22;7052;51.050;3.716;2022-08-04T15:52:09;28.00;57.20
13960;DHT22;7052;51.050;3.716;2022-08-04T15:54:37;28.10;56.80
13960;DHT22;7052;51.050;3.716;2022-08-04T15:57:06;28.20;55.90
13960;DHT22;7052;51.050;3.716;2022-08-04T15:59:56;28.20;56.10
13960;DHT22;7052;51.050;3.716;2022-08-04T16:02:48;28.00;56.20
13960;DHT22;7052;51.050;3.716;2022-08-04T16:05:36;27.90;57.00
13960;DHT22;7052;51.050;3.716;2022-08-04T16:08:24;27.90;57.10
13960;DHT22;7052;51.050;3.716;2022-08-04T16:10:52;27.90;57.60
13960;DHT22;7052;51.050;3.716;2022-08-04T16:13:22;27.90;57.20
13960;DHT22;7052;51.050;3.716;2022-08-04T16:15:51;27.70;57.60
13960;DHT22;7052;51.050;3.716;2022-08-04T16:18:39;27.60;58.10
13960;DHT22;7052;51.050;3.716;2022-08-04T16:21:22;27.70;57.90
13960;DHT22;7052;51.050;3.716;2022-08-04T16:24:07;27.60;58.50
13960;DHT22;7052;51.050;3.716;2022-08-04T16:26:46;27.50;58.70
13960;DHT22;7052;51.050;3.716;2022-08-04T16:29:35;27.50;58.50
13960;DHT22;7052;51.050;3.716;2022-08-04T16:32:12;27.40;59.00
13960;DHT22;7052;51.050;3.716;2022-08-04T16:34:42;27.30;59.40
13960;DHT22;7052;51.050;3.716;2022-08-04T16:37:10;27.30;59.20
13960;DHT22;7052;51.050;3.716;2022-08-04T16:39:39;27.20;59.60
13960;DHT22;7052;51.050;3.716;2022-08-04T16:42:29;27.10;59.60
13960;DHT22;7052;51.050;3.716;2022-08-04T16:45:03;26.90;60.00
13960;DHT22;7052;51.050;3.716;2022-08-04T16:48:06;26.90;60.00
13960;DHT22;7052;51.050;3.716;2022-08-04T16:50:48;26.90;60.20
13960;DHT22;7052;51.050;3.716;2022-08-04T16:53:16;27.00;59.40
13960;DHT22;7052;51.050;3.716;2022-08-04T16:55:48;27.00;59.50
13960;DHT22;7052;51.050;3.716;2022-08-04T16:58:24;27.00;59.60
13960;DHT22;7052;51.050;3.716;2022-08-04T17:00:52;26.90;59.10
13960;DHT22;7052;51.050;3.716;2022-08-04T17:03:20;26.80;59.10
13960;DHT22;7052;51.050;3.716;2022-08-04T17:05:47;26.80;58.80
13960;DHT22;7052;51.050;3.716;2022-08-04T17:08:14;26.50;59.20
13960;DHT22;7052;51.050;3.716;2022-08-04T17:10:46;26.40;60.10
13960;DHT22;7052;51.050;3.716;2022-08-04T17:13:25;26.40;60.30
13960;DHT22;7052;51.050;3.716;2022-08-04T17:15:55;26.40;60.00
13960;DHT22;7052;51.050;3.716;2022-08-04T17:18:24;26.40;59.50